sensor_id;sensor_type;location;lat;lon;timestamp;P1;durP1;ratioP1;P2;durP2;ratioP2
41556;SDS011;27720;51.992;5.890;2023-04-24T00:00:18;2.15;;;1.42;;
41556;SDS011;27720;51.992;5.890;2023-04-24T00:02:44;3.08;;;1.85;;
41556;SDS011;27720;51.992;5.890;2023-04-24T00:05:14;2.95;;;1.98;;
41556;SDS011;27720;51.992;5.890;2023-04-24T00:07:43;2.97;;;1.88;;
41556;SDS011;27720;51.992;5.890;2023-04-24T00:10:10;5.05;;;2.35;;
41556;SDS011;27720;51.992;5.890;2023-04-24T00:12:37;3.33;;;2.15;;
41556;SDS011;27720;51.992;5.890;2023-04-24T00:15:03;3.00;;;1.90;;
41556;SDS011;27720;51.992;5.890;2023-04-24T00:17:29;3.00;;;1.92;;
41556;SDS011;27720;51.992;5.890;2023-04-24T00:19:56;2.90;;;1.90;;
41556;SDS011;27720;51.992;5.890;2023-04-24T00:22:26;2.90;;;1.63;;
41556;SDS011;27720;51.992;5.890;2023-04-24T00:24:52;3.63;;;2.08;;
41556;SDS011;27720;51.992;5.890;2023-04-24T00:27:18;2.50;;;1.70;;
41556;SDS011;27720;51.992;5.890;2023-04-24T00:29:44;2.70;;;1.58;;
41556;SDS011;27720;51.992;5.890;2023-04-24T00:32:10;2.65;;;1.40;;
41556;SDS011;27720;51.992;5.890;2023-04-24T00:34:35;2.30;;;1.30;;
41556;SDS011;27720;51.992;5.890;2023-04-24T00:37:01;1.55;;;1.25;;
41556;SDS011;27720;51.992;5.890;2023-04-24T00:39:27;1.70;;;1.13;;
41556;SDS011;27720;51.992;5.890;2023-04-24T00:41:53;1.75;;;1.00;;
41556;SDS011;27720;51.992;5.890;2023-04-24T00:44:18;0.90;;;0.70;;
41556;SDS011;27720;51.992;5.890;2023-04-24T00:46:44;1.52;;;0.90;;
41556;SDS011;27720;51.992;5.890;2023-04-24T00:49:12;1.65;;;0.90;;
41556;SDS011;27720;51.992;5.890;2023-04-24T00:51:39;1.95;;;0.90;;
41556;SDS011;27720;51.992;5.890;2023-04-24T00:54:05;0.75;;;0.65;;
41556;SDS011;27720;51.992;5.890;2023-04-24T00:56:31;1.42;;;1.15;;
41556;SDS011;27720;51.992;5.890;2023-04-24T00:58:57;3.45;;;1.08;;
41556;SDS011;27720;51.992;5.890;2023-04-24T01:01:24;2.55;;;1.25;;
41556;SDS011;27720;51.992;5.890;2023-04-24T01:03:50;2.10;;;1.00;;
41556;SDS011;27720;51.992;5.890;2023-04-24T01:06:18;1.98;;;0.98;;
41556;SDS011;27720;51.992;5.890;2023-04-24T01:08:45;2.45;;;1.17;;
41556;SDS011;27720;51.992;5.890;2023-04-24T01:11:12;1.50;;;1.00;;
41556;SDS011;27720;51.992;5.890;2023-04-24T01:13:38;2.85;;;1.67;;
41556;SDS011;27720;51.992;5.890;2023-04-24T01:16:05;3.33;;;1.45;;
41556;SDS011;27720;51.992;5.890;2023-04-24T01:18:33;3.25;;;1.63;;
41556;SDS011;27720;51.992;5.890;2023-04-24T01:20:59;6.05;;;2.00;;
41556;SDS011;27720;51.992;5.890;2023-04-24T01:23:29;5.00;;;2.70;;
41556;SDS011;27720;51.992;5.890;2023-04-24T01:25:55;6.85;;;3.70;;
41556;SDS011;27720;51.992;5.890;2023-04-24T01:28:21;7.65;;;4.25;;
41556;SDS011;27720;51.992;5.890;2023-04-24T01:30:47;8.02;;;4.03;;
41556;SDS011;27720;51.992;5.890;2023-04-24T01:33:13;9.57;;;4.32;;
41556;SDS011;27720;51.992;5.890;2023-04-24T01:35:39;9.45;;;4.07;;
41556;SDS011;27720;51.992;5.890;2023-04-24T01:38:05;10.52;;;5.60;;
41556;SDS011;27720;51.992;5.890;2023-04-24T01:40:32;8.05;;;4.30;;
41556;SDS011;27720;51.992;5.890;2023-04-24T01:42:58;5.32;;;3.20;;
41556;SDS011;27720;51.992;5.890;2023-04-24T01:45:24;5.70;;;3.30;;
41556;SDS011;27720;51.992;5.890;2023-04-24T01:47:50;5.93;;;2.88;;
41556;SDS011;27720;51.992;5.890;2023-04-24T01:50:16;4.53;;;2.30;;
41556;SDS011;27720;51.992;5.890;2023-04-24T01:52:42;7.88;;;2.45;;
41556;SDS011;27720;51.992;5.890;2023-04-24T01:55:09;2.63;;;1.52;;
41556;SDS011;27720;51.992;5.890;2023-04-24T01:57:35;3.88;;;1.95;;
41556;SDS011;27720;51.992;5.890;2023-04-24T02:00:01;2.53;;;1.80;;
41556;SDS011;27720;51.992;5.890;2023-04-24T02:02:41;3.28;;;2.03;;
41556;SDS011;27720;51.992;5.890;2023-04-24T02:05:08;3.25;;;1.35;;
41556;SDS011;27720;51.992;5.890;2023-04-24T02:07:35;3.38;;;1.77;;
41556;SDS011;27720;51.992;5.890;2023-04-24T02:10:02;3.72;;;1.70;;
41556;SDS011;27720;51.992;5.890;2023-04-24T02:12:29;5.25;;;2.25;;
41556;SDS011;27720;51.992;5.890;2023-04-24T02:14:55;5.47;;;2.75;;
41556;SDS011;27720;51.992;5.890;2023-04-24T02:17:20;5.35;;;2.67;;
41556;SDS011;27720;51.992;5.890;2023-04-24T02:19:46;5.55;;;2.50;;
41556;SDS011;27720;51.992;5.890;2023-04-24T02:22:12;5.47;;;3.00;;
41556;SDS011;27720;51.992;5.890;2023-04-24T02:24:38;4.30;;;2.28;;
41556;SDS011;27720;51.992;5.890;2023-04-24T02:27:05;2.97;;;1.77;;
41556;SDS011;27720;51.992;5.890;2023-04-24T02:29:31;4.80;;;2.72;;
41556;SDS011;27720;51.992;5.890;2023-04-24T02:31:57;5.30;;;2.65;;
41556;SDS011;27720;51.992;5.890;2023-04-24T02:34:23;9.57;;;4.53;;
41556;SDS011;27720;51.992;5.890;2023-04-24T02:36:49;9.27;;;5.57;;
41556;SDS011;27720;51.992;5.890;2023-04-24T02:39:15;12.88;;;6.13;;
41556;SDS011;27720;51.992;5.890;2023-04-24T02:41:42;16.50;;;8.38;;
41556;SDS011;27720;51.992;5.890;2023-04-24T02:44:08;13.05;;;6.60;;
41556;SDS011;27720;51.992;5.890;2023-04-24T02:46:34;13.55;;;7.22;;
41556;SDS011;27720;51.992;5.890;2023-04-24T02:49:00;13.75;;;7.43;;
41556;SDS011;27720;51.992;5.890;2023-04-24T02:51:29;13.73;;;7.55;;
41556;SDS011;27720;51.992;5.890;2023-04-24T02:53:55;14.45;;;7.82;;
41556;SDS011;27720;51.992;5.890;2023-04-24T02:56:21;11.18;;;6.68;;
41556;SDS011;27720;51.992;5.890;2023-04-24T02:58:47;10.98;;;6.20;;
41556;SDS011;27720;51.992;5.890;2023-04-24T03:01:15;13.85;;;7.18;;
41556;SDS011;27720;51.992;5.890;2023-04-24T03:03:41;13.68;;;7.10;;
41556;SDS011;27720;51.992;5.890;2023-04-24T03:06:06;14.73;;;7.22;;
41556;SDS011;27720;51.992;5.890;2023-04-24T03:08:33;10.95;;;6.30;;
41556;SDS011;27720;51.992;5.890;2023-04-24T03:10:59;15.20;;;7.20;;
41556;SDS011;27720;51.992;5.890;2023-04-24T03:13:25;14.48;;;5.88;;
41556;SDS011;27720;51.992;5.890;2023-04-24T03:15:50;9.63;;;5.70;;
41556;SDS011;27720;51.992;5.890;2023-04-24T03:18:17;9.88;;;5.88;;
41556;SDS011;27720;51.992;5.890;2023-04-24T03:20:45;9.02;;;4.72;;
41556;SDS011;27720;51.992;5.890;2023-04-24T03:23:12;7.63;;;4.50;;
41556;SDS011;27720;51.992;5.890;2023-04-24T03:25:38;7.78;;;4.40;;
41556;SDS011;27720;51.992;5.890;2023-04-24T03:28:04;7.95;;;3.83;;
41556;SDS011;27720;51.992;5.890;2023-04-24T03:30:38;10.10;;;4.45;;
41556;SDS011;27720;51.992;5.890;2023-04-24T03:33:05;12.95;;;6.03;;
41556;SDS011;27720;51.992;5.890;2023-04-24T03:35:34;11.35;;;5.93;;
41556;SDS011;27720;51.992;5.890;2023-04-24T03:38:03;11.02;;;4.93;;
41556;SDS011;27720;51.992;5.890;2023-04-24T03:40:48;12.30;;;6.50;;
41556;SDS011;27720;51.992;5.890;2023-04-24T03:43:34;14.45;;;7.07;;
41556;SDS011;27720;51.992;5.890;2023-04-24T03:46:01;14.45;;;7.80;;
41556;SDS011;27720;51.992;5.890;2023-04-24T03:48:28;15.05;;;8.88;;
41556;SDS011;27720;51.992;5.890;2023-04-24T03:50:54;13.35;;;8.27;;
41556;SDS011;27720;51.992;5.890;2023-04-24T03:53:19;19.23;;;9.30;;
41556;SDS011;27720;51.992;5.890;2023-04-24T03:55:45;19.08;;;9.63;;
41556;SDS011;27720;51.992;5.890;2023-04-24T03:58:16;18.70;;;10.55;;
41556;SDS011;27720;51.992;5.890;2023-04-24T04:00:43;16.77;;;9.00;;
41556;SDS011;27720;51.992;5.890;2023-04-24T04:03:32;17.65;;;8.60;;
41556;SDS011;27720;51.992;5.890;2023-04-24T04:05:58;19.73;;;10.18;;
41556;SDS011;27720;51.992;5.890;2023-04-24T04:08:25;18.65;;;10.57;;
41556;SDS011;27720;51.992;5.890;2023-04-24T04:10:51;20.35;;;10.82;;
41556;SDS011;27720;51.992;5.890;2023-04-24T04:13:17;15.48;;;9.43;;
41556;SDS011;27720;51.992;5.890;2023-04-24T04:15:43;17.85;;;9.65;;
41556;SDS011;27720;51.992;5.890;2023-04-24T04:18:09;19.15;;;10.18;;
41556;SDS011;27720;51.992;5.890;2023-04-24T04:20:35;18.63;;;9.88;;
41556;SDS011;27720;51.992;5.890;2023-04-24T04:23:04;20.30;;;10.90;;
41556;SDS011;27720;51.992;5.890;2023-04-24T04:25:46;20.50;;;10.85;;
41556;SDS011;27720;51.992;5.890;2023-04-24T04:28:13;16.50;;;9.40;;
41556;SDS011;27720;51.992;5.890;2023-04-24T04:30:39;14.68;;;8.30;;
41556;SDS011;27720;51.992;5.890;2023-04-24T04:33:05;16.15;;;9.02;;
41556;SDS011;27720;51.992;5.890;2023-04-24T04:35:32;20.38;;;11.30;;
41556;SDS011;27720;51.992;5.890;2023-04-24T04:37:58;15.60;;;8.75;;
41556;SDS011;27720;51.992;5.890;2023-04-24T04:40:43;16.88;;;8.77;;
41556;SDS011;27720;51.992;5.890;2023-04-24T04:43:11;21.73;;;10.23;;
41556;SDS011;27720;51.992;5.890;2023-04-24T04:45:44;18.98;;;10.45;;
41556;SDS011;27720;51.992;5.890;2023-04-24T04:48:30;20.23;;;8.35;;
41556;SDS011;27720;51.992;5.890;2023-04-24T04:50:59;18.92;;;9.40;;
41556;SDS011;27720;51.992;5.890;2023-04-24T04:53:25;17.00;;;8.60;;
41556;SDS011;27720;51.992;5.890;2023-04-24T04:55:51;13.32;;;8.18;;
41556;SDS011;27720;51.992;5.890;2023-04-24T04:58:18;14.63;;;9.35;;
41556;SDS011;27720;51.992;5.890;2023-04-24T05:00:47;21.83;;;10.70;;
41556;SDS011;27720;51.992;5.890;2023-04-24T05:03:45;18.10;;;9.57;;
41556;SDS011;27720;51.992;5.890;2023-04-24T05:06:15;15.63;;;9.00;;
41556;SDS011;27720;51.992;5.890;2023-04-24T05:08:42;16.50;;;8.70;;
41556;SDS011;27720;51.992;5.890;2023-04-24T05:11:14;16.35;;;8.60;;
41556;SDS011;27720;51.992;5.890;2023-04-24T05:13:40;17.80;;;9.45;;
41556;SDS011;27720;51.992;5.890;2023-04-24T05:16:14;13.52;;;7.55;;
41556;SDS011;27720;51.992;5.890;2023-04-24T05:18:40;14.50;;;8.27;;
41556;SDS011;27720;51.992;5.890;2023-04-24T05:21:08;12.93;;;6.82;;
41556;SDS011;27720;51.992;5.890;2023-04-24T05:23:36;10.68;;;6.65;;
41556;SDS011;27720;51.992;5.890;2023-04-24T05:26:02;12.35;;;5.85;;
41556;SDS011;27720;51.992;5.890;2023-04-24T05:28:31;13.48;;;7.13;;
41556;SDS011;27720;51.992;5.890;2023-04-24T05:31:08;10.68;;;6.63;;
41556;SDS011;27720;51.992;5.890;2023-04-24T05:33:35;10.45;;;6.35;;
41556;SDS011;27720;51.992;5.890;2023-04-24T05:36:04;10.02;;;5.93;;
41556;SDS011;27720;51.992;5.890;2023-04-24T05:38:31;9.52;;;5.50;;
41556;SDS011;27720;51.992;5.890;2023-04-24T05:40:57;9.40;;;5.35;;
41556;SDS011;27720;51.992;5.890;2023-04-24T05:43:22;9.52;;;5.40;;
41556;SDS011;27720;51.992;5.890;2023-04-24T05:45:50;10.63;;;5.43;;
41556;SDS011;27720;51.992;5.890;2023-04-24T05:48:18;11.82;;;5.85;;
41556;SDS011;27720;51.992;5.890;2023-04-24T05:50:48;8.75;;;4.80;;
41556;SDS011;27720;51.992;5.890;2023-04-24T05:53:24;11.85;;;5.75;;
41556;SDS011;27720;51.992;5.890;2023-04-24T05:55:50;8.40;;;4.60;;
41556;SDS011;27720;51.992;5.890;2023-04-24T05:58:16;7.50;;;3.97;;
41556;SDS011;27720;51.992;5.890;2023-04-24T06:00:46;7.03;;;3.13;;
41556;SDS011;27720;51.992;5.890;2023-04-24T06:03:15;7.07;;;3.55;;
41556;SDS011;27720;51.992;5.890;2023-04-24T06:05:41;5.40;;;2.88;;
41556;SDS011;27720;51.992;5.890;2023-04-24T06:08:07;3.97;;;2.30;;
41556;SDS011;27720;51.992;5.890;2023-04-24T06:10:36;5.68;;;3.15;;
41556;SDS011;27720;51.992;5.890;2023-04-24T06:13:02;6.65;;;2.90;;
41556;SDS011;27720;51.992;5.890;2023-04-24T06:15:33;5.53;;;3.30;;
41556;SDS011;27720;51.992;5.890;2023-04-24T06:18:04;5.55;;;2.88;;
41556;SDS011;27720;51.992;5.890;2023-04-24T06:20:30;5.10;;;2.58;;
41556;SDS011;27720;51.992;5.890;2023-04-24T06:22:56;5.55;;;2.80;;
41556;SDS011;27720;51.992;5.890;2023-04-24T06:25:25;5.43;;;2.78;;
41556;SDS011;27720;51.992;5.890;2023-04-24T06:27:51;5.72;;;2.30;;
41556;SDS011;27720;51.992;5.890;2023-04-24T06:30:17;4.55;;;2.70;;
41556;SDS011;27720;51.992;5.890;2023-04-24T06:32:43;4.80;;;2.60;;
41556;SDS011;27720;51.992;5.890;2023-04-24T06:35:09;5.65;;;2.50;;
41556;SDS011;27720;51.992;5.890;2023-04-24T06:37:37;4.63;;;2.20;;
41556;SDS011;27720;51.992;5.890;2023-04-24T06:40:04;4.00;;;1.85;;
41556;SDS011;27720;51.992;5.890;2023-04-24T06:42:30;3.97;;;2.15;;
41556;SDS011;27720;51.992;5.890;2023-04-24T06:44:56;3.15;;;1.73;;
41556;SDS011;27720;51.992;5.890;2023-04-24T06:47:25;4.63;;;2.33;;
41556;SDS011;27720;51.992;5.890;2023-04-24T06:49:54;4.68;;;2.30;;
41556;SDS011;27720;51.992;5.890;2023-04-24T06:52:20;3.75;;;2.05;;
41556;SDS011;27720;51.992;5.890;2023-04-24T06:54:46;2.85;;;1.42;;
41556;SDS011;27720;51.992;5.890;2023-04-24T06:57:12;2.28;;;1.30;;
41556;SDS011;27720;51.992;5.890;2023-04-24T06:59:37;1.95;;;1.13;;
41556;SDS011;27720;51.992;5.890;2023-04-24T07:02:03;2.65;;;1.00;;
41556;SDS011;27720;51.992;5.890;2023-04-24T07:04:29;2.30;;;1.10;;
41556;SDS011;27720;51.992;5.890;2023-04-24T07:06:56;2.08;;;1.10;;
41556;SDS011;27720;51.992;5.890;2023-04-24T07:09:23;2.55;;;1.20;;
41556;SDS011;27720;51.992;5.890;2023-04-24T07:11:51;1.10;;;0.73;;
41556;SDS011;27720;51.992;5.890;2023-04-24T07:14:17;2.17;;;1.08;;
41556;SDS011;27720;51.992;5.890;2023-04-24T07:16:43;1.33;;;1.05;;
41556;SDS011;27720;51.992;5.890;2023-04-24T07:19:10;2.88;;;1.30;;
41556;SDS011;27720;51.992;5.890;2023-04-24T07:21:36;1.67;;;0.90;;
41556;SDS011;27720;51.992;5.890;2023-04-24T07:24:02;1.65;;;0.98;;
41556;SDS011;27720;51.992;5.890;2023-04-24T07:26:28;1.73;;;1.00;;
41556;SDS011;27720;51.992;5.890;2023-04-24T07:28:55;1.73;;;1.02;;
41556;SDS011;27720;51.992;5.890;2023-04-24T07:31:30;1.70;;;0.98;;
41556;SDS011;27720;51.992;5.890;2023-04-24T07:33:56;1.23;;;0.82;;
41556;SDS011;27720;51.992;5.890;2023-04-24T07:36:26;2.35;;;0.70;;
41556;SDS011;27720;51.992;5.890;2023-04-24T07:38:53;1.50;;;0.73;;
41556;SDS011;27720;51.992;5.890;2023-04-24T07:41:19;1.75;;;1.15;;
41556;SDS011;27720;51.992;5.890;2023-04-24T07:43:45;2.55;;;1.48;;
41556;SDS011;27720;51.992;5.890;2023-04-24T07:46:11;2.30;;;1.50;;
41556;SDS011;27720;51.992;5.890;2023-04-24T07:48:37;4.07;;;2.63;;
41556;SDS011;27720;51.992;5.890;2023-04-24T07:51:02;3.45;;;1.98;;
41556;SDS011;27720;51.992;5.890;2023-04-24T07:53:28;4.78;;;2.92;;
41556;SDS011;27720;51.992;5.890;2023-04-24T07:55:55;6.43;;;2.88;;
41556;SDS011;27720;51.992;5.890;2023-04-24T07:58:21;5.63;;;2.38;;
41556;SDS011;27720;51.992;5.890;2023-04-24T08:00:47;5.38;;;3.08;;
41556;SDS011;27720;51.992;5.890;2023-04-24T08:03:19;6.78;;;2.63;;
41556;SDS011;27720;51.992;5.890;2023-04-24T08:05:45;6.30;;;3.03;;
41556;SDS011;27720;51.992;5.890;2023-04-24T08:08:11;11.27;;;4.22;;
41556;SDS011;27720;51.992;5.890;2023-04-24T08:10:36;5.47;;;3.25;;
41556;SDS011;27720;51.992;5.890;2023-04-24T08:13:02;5.55;;;3.25;;
41556;SDS011;27720;51.992;5.890;2023-04-24T08:15:28;6.45;;;3.42;;
41556;SDS011;27720;51.992;5.890;2023-04-24T08:17:54;6.25;;;3.75;;
41556;SDS011;27720;51.992;5.890;2023-04-24T08:20:20;8.75;;;4.40;;
41556;SDS011;27720;51.992;5.890;2023-04-24T08:22:46;9.80;;;3.90;;
41556;SDS011;27720;51.992;5.890;2023-04-24T08:25:14;8.77;;;3.92;;
41556;SDS011;27720;51.992;5.890;2023-04-24T08:27:40;7.13;;;3.92;;
41556;SDS011;27720;51.992;5.890;2023-04-24T08:30:06;7.50;;;3.78;;
41556;SDS011;27720;51.992;5.890;2023-04-24T08:32:32;6.15;;;3.65;;
41556;SDS011;27720;51.992;5.890;2023-04-24T08:34:58;6.97;;;4.07;;
41556;SDS011;27720;51.992;5.890;2023-04-24T08:37:25;7.85;;;4.05;;
41556;SDS011;27720;51.992;5.890;2023-04-24T08:39:51;6.35;;;3.55;;
41556;SDS011;27720;51.992;5.890;2023-04-24T08:42:18;11.05;;;4.60;;
41556;SDS011;27720;51.992;5.890;2023-04-24T08:44:45;8.00;;;3.53;;
41556;SDS011;27720;51.992;5.890;2023-04-24T08:47:11;6.97;;;3.92;;
41556;SDS011;27720;51.992;5.890;2023-04-24T08:49:38;6.97;;;4.03;;
41556;SDS011;27720;51.992;5.890;2023-04-24T08:52:07;7.50;;;3.22;;
41556;SDS011;27720;51.992;5.890;2023-04-24T08:54:33;8.52;;;4.35;;
41556;SDS011;27720;51.992;5.890;2023-04-24T08:57:00;10.23;;;4.28;;
41556;SDS011;27720;51.992;5.890;2023-04-24T08:59:29;7.60;;;3.55;;
41556;SDS011;27720;51.992;5.890;2023-04-24T09:01:56;8.25;;;3.75;;
41556;SDS011;27720;51.992;5.890;2023-04-24T09:04:22;11.48;;;3.55;;
41556;SDS011;27720;51.992;5.890;2023-04-24T09:06:53;5.82;;;3.08;;
41556;SDS011;27720;51.992;5.890;2023-04-24T09:09:24;3.97;;;2.65;;
41556;SDS011;27720;51.992;5.890;2023-04-24T09:11:50;7.68;;;2.63;;
41556;SDS011;27720;51.992;5.890;2023-04-24T09:14:18;5.10;;;2.20;;
41556;SDS011;27720;51.992;5.890;2023-04-24T09:16:45;7.32;;;3.00;;
41556;SDS011;27720;51.992;5.890;2023-04-24T09:19:12;5.20;;;2.58;;
41556;SDS011;27720;51.992;5.890;2023-04-24T09:21:38;3.50;;;2.78;;
41556;SDS011;27720;51.992;5.890;2023-04-24T09:24:04;7.55;;;2.92;;
41556;SDS011;27720;51.992;5.890;2023-04-24T09:26:34;9.70;;;2.60;;
41556;SDS011;27720;51.992;5.890;2023-04-24T09:29:01;7.47;;;2.13;;
41556;SDS011;27720;51.992;5.890;2023-04-24T09:31:29;11.10;;;2.22;;
41556;SDS011;27720;51.992;5.890;2023-04-24T09:33:59;5.97;;;2.22;;
41556;SDS011;27720;51.992;5.890;2023-04-24T09:36:27;3.58;;;1.55;;
41556;SDS011;27720;51.992;5.890;2023-04-24T09:38:57;7.93;;;1.73;;
41556;SDS011;27720;51.992;5.890;2023-04-24T09:41:23;4.50;;;2.25;;
41556;SDS011;27720;51.992;5.890;2023-04-24T09:43:49;8.52;;;2.17;;
41556;SDS011;27720;51.992;5.890;2023-04-24T09:46:15;12.82;;;2.05;;
41556;SDS011;27720;51.992;5.890;2023-04-24T09:48:43;5.38;;;1.35;;
41556;SDS011;27720;51.992;5.890;2023-04-24T09:51:09;5.82;;;1.70;;
41556;SDS011;27720;51.992;5.890;2023-04-24T09:53:38;8.20;;;1.70;;
41556;SDS011;27720;51.992;5.890;2023-04-24T09:56:12;8.55;;;1.70;;
41556;SDS011;27720;51.992;5.890;2023-04-24T09:58:38;7.55;;;1.65;;
41556;SDS011;27720;51.992;5.890;2023-04-24T10:01:04;7.70;;;2.05;;
41556;SDS011;27720;51.992;5.890;2023-04-24T10:03:30;7.93;;;1.95;;
41556;SDS011;27720;51.992;5.890;2023-04-24T10:06:03;12.60;;;1.60;;
41556;SDS011;27720;51.992;5.890;2023-04-24T10:08:34;6.47;;;1.73;;
41556;SDS011;27720;51.992;5.890;2023-04-24T10:11:01;4.20;;;1.50;;
41556;SDS011;27720;51.992;5.890;2023-04-24T10:13:27;4.72;;;1.35;;
41556;SDS011;27720;51.992;5.890;2023-04-24T10:15:53;4.50;;;1.63;;
41556;SDS011;27720;51.992;5.890;2023-04-24T10:18:20;5.25;;;1.58;;
41556;SDS011;27720;51.992;5.890;2023-04-24T10:20:46;3.03;;;1.17;;
41556;SDS011;27720;51.992;5.890;2023-04-24T10:23:12;4.38;;;2.13;;
41556;SDS011;27720;51.992;5.890;2023-04-24T10:25:38;6.00;;;1.73;;
41556;SDS011;27720;51.992;5.890;2023-04-24T10:28:04;8.80;;;2.08;;
41556;SDS011;27720;51.992;5.890;2023-04-24T10:30:31;4.75;;;1.48;;
41556;SDS011;27720;51.992;5.890;2023-04-24T10:33:03;5.32;;;1.75;;
41556;SDS011;27720;51.992;5.890;2023-04-24T10:35:31;3.88;;;1.38;;
41556;SDS011;27720;51.992;5.890;2023-04-24T10:38:01;3.38;;;1.48;;
41556;SDS011;27720;51.992;5.890;2023-04-24T10:40:51;7.35;;;1.48;;
41556;SDS011;27720;51.992;5.890;2023-04-24T10:43:31;11.27;;;2.65;;
41556;SDS011;27720;51.992;5.890;2023-04-24T10:46:02;3.78;;;1.27;;
41556;SDS011;27720;51.992;5.890;2023-04-24T10:48:29;4.65;;;1.40;;
41556;SDS011;27720;51.992;5.890;2023-04-24T10:50:55;1.58;;;0.80;;
41556;SDS011;27720;51.992;5.890;2023-04-24T10:53:22;3.67;;;1.33;;
41556;SDS011;27720;51.992;5.890;2023-04-24T10:56:08;4.53;;;1.10;;
41556;SDS011;27720;51.992;5.890;2023-04-24T10:58:42;3.15;;;1.20;;
41556;SDS011;27720;51.992;5.890;2023-04-24T11:03:59;4.15;;;1.00;;
41556;SDS011;27720;51.992;5.890;2023-04-24T11:06:34;5.13;;;0.90;;
41556;SDS011;27720;51.992;5.890;2023-04-24T11:09:02;4.60;;;1.10;;
41556;SDS011;27720;51.992;5.890;2023-04-24T11:11:32;6.20;;;1.55;;
41556;SDS011;27720;51.992;5.890;2023-04-24T11:14:00;3.28;;;0.98;;
41556;SDS011;27720;51.992;5.890;2023-04-24T11:24:25;3.90;;;0.60;;
41556;SDS011;27720;51.992;5.890;2023-04-24T11:32:15;3.67;;;0.70;;
41556;SDS011;27720;51.992;5.890;2023-04-24T11:35:01;1.25;;;0.50;;
41556;SDS011;27720;51.992;5.890;2023-04-24T11:37:39;2.15;;;0.80;;
41556;SDS011;27720;51.992;5.890;2023-04-24T11:40:07;1.90;;;0.73;;
41556;SDS011;27720;51.992;5.890;2023-04-24T11:42:39;1.75;;;0.60;;
41556;SDS011;27720;51.992;5.890;2023-04-24T11:45:10;1.30;;;0.50;;
41556;SDS011;27720;51.992;5.890;2023-04-24T11:47:40;1.23;;;0.57;;
41556;SDS011;27720;51.992;5.890;2023-04-24T11:50:10;2.78;;;0.45;;
41556;SDS011;27720;51.992;5.890;2023-04-24T11:52:37;3.65;;;0.60;;
41556;SDS011;27720;51.992;5.890;2023-04-24T11:55:23;2.88;;;0.70;;
41556;SDS011;27720;51.992;5.890;2023-04-24T11:57:53;3.63;;;0.50;;
41556;SDS011;27720;51.992;5.890;2023-04-24T12:00:31;1.55;;;0.40;;
41556;SDS011;27720;51.992;5.890;2023-04-24T12:03:03;0.77;;;0.40;;
41556;SDS011;27720;51.992;5.890;2023-04-24T12:05:31;3.95;;;0.57;;
41556;SDS011;27720;51.992;5.890;2023-04-24T12:07:57;1.20;;;0.32;;
41556;SDS011;27720;51.992;5.890;2023-04-24T12:10:23;0.52;;;0.32;;
41556;SDS011;27720;51.992;5.890;2023-04-24T12:12:50;0.57;;;0.35;;
41556;SDS011;27720;51.992;5.890;2023-04-24T12:15:17;2.20;;;0.65;;
41556;SDS011;27720;51.992;5.890;2023-04-24T12:17:46;1.17;;;0.43;;
41556;SDS011;27720;51.992;5.890;2023-04-24T12:20:13;1.23;;;0.68;;
41556;SDS011;27720;51.992;5.890;2023-04-24T12:25:12;1.15;;;0.55;;
41556;SDS011;27720;51.992;5.890;2023-04-24T12:27:38;1.13;;;0.60;;
41556;SDS011;27720;51.992;5.890;2023-04-24T12:30:05;5.25;;;0.70;;
41556;SDS011;27720;51.992;5.890;2023-04-24T12:32:34;1.08;;;0.57;;
41556;SDS011;27720;51.992;5.890;2023-04-24T12:35:05;2.95;;;0.50;;
41556;SDS011;27720;51.992;5.890;2023-04-24T12:37:32;3.83;;;0.80;;
41556;SDS011;27720;51.992;5.890;2023-04-24T12:40:08;2.55;;;0.50;;
41556;SDS011;27720;51.992;5.890;2023-04-24T12:42:35;0.60;;;0.50;;
41556;SDS011;27720;51.992;5.890;2023-04-24T12:45:14;2.00;;;0.50;;
41556;SDS011;27720;51.992;5.890;2023-04-24T12:47:44;0.60;;;0.50;;
41556;SDS011;27720;51.992;5.890;2023-04-24T12:50:11;1.17;;;0.60;;
41556;SDS011;27720;51.992;5.890;2023-04-24T12:52:39;4.15;;;0.60;;
41556;SDS011;27720;51.992;5.890;2023-04-24T12:55:06;1.52;;;0.40;;
41556;SDS011;27720;51.992;5.890;2023-04-24T12:57:38;1.75;;;0.55;;
41556;SDS011;27720;51.992;5.890;2023-04-24T13:00:08;1.38;;;0.50;;
41556;SDS011;27720;51.992;5.890;2023-04-24T13:02:35;1.70;;;0.55;;
41556;SDS011;27720;51.992;5.890;2023-04-24T13:05:01;1.88;;;0.60;;
41556;SDS011;27720;51.992;5.890;2023-04-24T13:07:27;5.07;;;0.70;;
41556;SDS011;27720;51.992;5.890;2023-04-24T13:09:54;1.08;;;0.82;;
41556;SDS011;27720;51.992;5.890;2023-04-24T13:12:20;0.63;;;0.40;;
41556;SDS011;27720;51.992;5.890;2023-04-24T13:14:48;1.15;;;0.50;;
41556;SDS011;27720;51.992;5.890;2023-04-24T13:17:14;1.48;;;0.50;;
41556;SDS011;27720;51.992;5.890;2023-04-24T13:19:41;2.63;;;0.50;;
41556;SDS011;27720;51.992;5.890;2023-04-24T13:22:09;1.40;;;0.50;;
41556;SDS011;27720;51.992;5.890;2023-04-24T13:24:36;2.80;;;0.50;;
41556;SDS011;27720;51.992;5.890;2023-04-24T13:27:03;3.28;;;0.65;;
41556;SDS011;27720;51.992;5.890;2023-04-24T13:29:29;4.22;;;0.50;;
41556;SDS011;27720;51.992;5.890;2023-04-24T13:31:55;1.52;;;0.40;;
41556;SDS011;27720;51.992;5.890;2023-04-24T13:34:21;2.35;;;0.60;;
41556;SDS011;27720;51.992;5.890;2023-04-24T13:36:51;1.60;;;0.70;;
41556;SDS011;27720;51.992;5.890;2023-04-24T13:39:19;6.18;;;1.33;;
41556;SDS011;27720;51.992;5.890;2023-04-24T13:41:45;4.00;;;0.80;;
41556;SDS011;27720;51.992;5.890;2023-04-24T13:44:13;4.25;;;0.50;;
41556;SDS011;27720;51.992;5.890;2023-04-24T13:46:39;1.58;;;0.73;;
41556;SDS011;27720;51.992;5.890;2023-04-24T13:49:05;2.97;;;0.73;;
41556;SDS011;27720;51.992;5.890;2023-04-24T13:51:31;4.15;;;1.02;;
41556;SDS011;27720;51.992;5.890;2023-04-24T13:53:57;3.10;;;0.93;;
41556;SDS011;27720;51.992;5.890;2023-04-24T13:56:24;4.03;;;1.05;;
41556;SDS011;27720;51.992;5.890;2023-04-24T13:58:51;6.05;;;0.90;;
41556;SDS011;27720;51.992;5.890;2023-04-24T14:01:16;4.07;;;0.88;;
41556;SDS011;27720;51.992;5.890;2023-04-24T14:03:42;2.83;;;0.85;;
41556;SDS011;27720;51.992;5.890;2023-04-24T14:06:08;3.67;;;0.68;;
41556;SDS011;27720;51.992;5.890;2023-04-24T14:08:34;3.97;;;0.98;;
41556;SDS011;27720;51.992;5.890;2023-04-24T14:11:00;4.22;;;0.75;;
41556;SDS011;27720;51.992;5.890;2023-04-24T14:13:25;2.63;;;0.80;;
41556;SDS011;27720;51.992;5.890;2023-04-24T14:15:52;2.63;;;0.75;;
41556;SDS011;27720;51.992;5.890;2023-04-24T14:18:18;4.43;;;0.98;;
41556;SDS011;27720;51.992;5.890;2023-04-24T14:20:56;1.08;;;0.63;;
41556;SDS011;27720;51.992;5.890;2023-04-24T14:24:08;6.00;;;1.05;;
41556;SDS011;27720;51.992;5.890;2023-04-24T14:26:34;3.85;;;1.00;;
41556;SDS011;27720;51.992;5.890;2023-04-24T14:29:00;7.13;;;0.93;;
41556;SDS011;27720;51.992;5.890;2023-04-24T14:31:26;7.93;;;1.50;;
41556;SDS011;27720;51.992;5.890;2023-04-24T14:33:54;2.83;;;0.80;;
41556;SDS011;27720;51.992;5.890;2023-04-24T14:36:20;4.20;;;1.40;;
41556;SDS011;27720;51.992;5.890;2023-04-24T14:38:46;5.38;;;0.90;;
41556;SDS011;27720;51.992;5.890;2023-04-24T14:41:11;4.90;;;0.80;;
41556;SDS011;27720;51.992;5.890;2023-04-24T14:43:37;4.63;;;1.00;;
41556;SDS011;27720;51.992;5.890;2023-04-24T14:46:03;4.97;;;1.15;;
41556;SDS011;27720;51.992;5.890;2023-04-24T14:48:29;4.68;;;1.20;;
41556;SDS011;27720;51.992;5.890;2023-04-24T14:50:55;4.78;;;1.00;;
41556;SDS011;27720;51.992;5.890;2023-04-24T14:53:22;3.60;;;0.90;;
41556;SDS011;27720;51.992;5.890;2023-04-24T14:55:48;4.75;;;0.95;;
41556;SDS011;27720;51.992;5.890;2023-04-24T14:58:14;4.78;;;0.90;;
41556;SDS011;27720;51.992;5.890;2023-04-24T15:00:39;1.98;;;0.90;;
41556;SDS011;27720;51.992;5.890;2023-04-24T15:03:05;10.90;;;1.92;;
41556;SDS011;27720;51.992;5.890;2023-04-24T15:05:32;3.35;;;0.90;;
41556;SDS011;27720;51.992;5.890;2023-04-24T15:07:58;5.15;;;1.00;;